Terminal Aerodrome Forecast
Issued by NWS New Orleans/Baton Rouge, LA

Home | Current Version | Previous Version | Text Only | Print | Product List | Glossary On
Versions: 1 2 3 4 5 6 7 8 9 10 11 12 13 14 15 16 17 18 19 20 21 22 23 24 25 26 27 28 29
000
FTUS44 KLIX 040533
TAFNEW
TAF
KNEW 040533Z 0406/0506 14005KT P6SM FEW020 SCT250
     FM041200 11008KT P6SM SCT025
     FM041700 16009KT P6SM VCSH SCT035 BKN250
     FM050100 18006KT P6SM SCT100 BKN250=

USA.gov is the U.S. government's official web portal to all federal, state and local government web resources and services.